Penola, South Australia

10:50 PM ACST on April 18, 2015 (GMT +0930)
Coonawarra | | Change Station
CLOSE
Current Station
Personal Weather Station
Location: Coonawarra, SOUTH AUSTRALIA
Elevation: 207 ft
Nearby Weather Stations

Elev 207 ft 37.35 °S, 140.85 °E | Updated 4 minutes ago

Scattered Clouds
Scattered Clouds
46.0 °F
Feels Like 46 °F
N
0.0
Wind Variable Wind from SW

Today
High -- | Low -- °F
--% Chance of Precip.
Yesterday
High -- | Low -- °F
Precip. -- in
6:34 AM 5:36 PM
Waning Crescent, 0% visible
Pressure 30.15 in
Visibility 6.2 miles
Clouds Scattered Clouds 4700 ft
Scattered Clouds 6600 ft
Windchill 46 °F
Dew Point 43 °F
Humidity 90%
Rainfall 0.11 in
Snow Depth Not available.
UV 0 out of 12
Pollen Not available.
Air Quality Not available.
Flu Activity Not available.
METAR YMTG 181300Z AUTO 24009KT 9999 // SCT047 SCT066 10/04 Q1021

More Conditions Fewer Conditions

Pressure 30.15 in
Visibility 6.2 miles
Clouds Scattered Clouds 4700 ft
Scattered Clouds 6600 ft
Windchill 46 °F
Dew Point 43 °F
Humidity 90%
Rainfall 0.11 in
Snow Depth Not available.
UV 0 out of 12
Pollen Not available.
Air Quality Not available.
Flu Activity Not available.
METAR YMTG 181300Z AUTO 24009KT 9999 // SCT047 SCT066 10/04 Q1021

More Conditions Fewer Conditions

10-Day Weather Forecast

Almanac

Astronomy

Apr. 18, 2015 Rise Set
Actual Time
Civil Twilight
Nautical Twilight
Astronomical Twilight
Moon
Length of Visible Light
Length of Day
Tomorrow will be .
, % of the Moon is Illuminated

Today's Extremes

Country Highs Country Lows

Community

WunderPhotos

Upload Photos

1,814,383 photos uploaded!

WunderBlogs® & News

Nearby

Air Quality

  Air Quality AQ Index Pollutant
Not available.

Snow Depth

Station Depth Elevation

Earthquake Activity

City Distance Mag. Time & Date
Minimum magnitude displayed is 2.5.

Coastal Water Temperatures

Place Temperature

Stations

Nearby Weather Stations

Station Location Temp. Windchill Dew Point Humidity Wind Precip. Elev Updated Type